createdAt,value
2023-05-05T00:04:56.825Z,66.94
2023-05-05T00:10:00.138Z,67.15
2023-05-05T00:15:02.611Z,67.18
2023-05-05T00:20:05.872Z,67.64
2023-05-05T00:25:09.509Z,68.52
2023-05-05T00:30:11.926Z,69.10
2023-05-05T00:35:13.585Z,69.81
2023-05-05T00:40:17.265Z,70.20
2023-05-05T00:45:20.446Z,70.69
2023-05-05T00:50:23.858Z,71.43
2023-05-05T00:55:28.725Z,71.68
2023-05-05T01:00:31.161Z,71.98
2023-05-05T01:05:43.070Z,72.41
2023-05-05T01:10:53.174Z,72.60
2023-05-05T01:16:01.746Z,72.45
2023-05-05T01:21:13.189Z,72.45
2023-05-05T01:26:48.475Z,73.81
2023-05-05T01:31:54.147Z,73.69
2023-05-05T01:37:04.696Z,73.97
2023-05-05T01:42:10.185Z,74.14
2023-05-05T01:47:16.211Z,73.95
2023-05-05T01:52:19.174Z,74.00
2023-05-05T01:57:23.347Z,74.21
2023-05-05T02:02:29.259Z,75.25
2023-05-05T02:07:34.645Z,74.75
2023-05-05T02:12:37.790Z,75.40
2023-05-05T02:17:43.223Z,75.76
2023-05-05T02:22:45.689Z,76.05
2023-05-05T02:27:51.264Z,76.33
2023-05-05T02:33:00.016Z,76.75
2023-05-05T02:38:03.644Z,77.17
2023-05-05T02:43:10.027Z,77.04
2023-05-05T02:48:13.513Z,77.84
2023-05-05T02:53:15.781Z,78.68
2023-05-05T02:58:24.578Z,79.45
2023-05-05T03:03:36.476Z,79.73
2023-05-05T03:08:44.710Z,79.29
2023-05-05T03:13:51.409Z,79.31
2023-05-05T03:18:57.430Z,79.60
2023-05-05T03:23:59.957Z,80.22
2023-05-05T03:29:02.054Z,79.81
2023-05-05T03:34:05.858Z,79.70
2023-05-05T03:39:07.612Z,79.83
2023-05-05T03:44:10.015Z,79.66
2023-05-05T03:49:13.457Z,79.07
2023-05-05T03:54:15.708Z,79.18
2023-05-05T03:59:17.743Z,78.66
2023-05-05T04:04:21.271Z,77.97
2023-05-05T04:09:23.633Z,78.10
2023-05-05T04:14:26.131Z,78.24
2023-05-05T04:19:32.386Z,77.16
2023-05-05T04:24:34.519Z,77.28
2023-05-05T04:29:36.206Z,77.13
2023-05-05T04:34:39.428Z,75.80
2023-05-05T04:39:42.097Z,70.40
2023-05-05T04:44:44.155Z,66.62
2023-05-05T04:49:47.568Z,63.72
2023-05-05T04:54:49.682Z,62.56
2023-05-05T04:59:51.767Z,58.91
2023-05-05T05:04:55.696Z,57.84
2023-05-05T05:09:58.243Z,55.55
2023-05-05T05:15:00.389Z,59.38
2023-05-05T05:20:04.249Z,56.81
2023-05-05T05:25:07.084Z,54.25
2023-05-05T05:30:10.563Z,56.00
2023-05-05T05:35:14.167Z,54.46
2023-05-05T05:40:16.981Z,53.59
2023-05-05T05:45:19.399Z,50.88
2023-05-05T05:50:23.014Z,51.92
2023-05-05T05:55:24.846Z,50.54
2023-05-05T06:00:26.574Z,46.90
2023-05-05T06:05:29.904Z,47.19
2023-05-05T06:10:32.156Z,54.10
2023-05-05T06:15:34.167Z,55.40
2023-05-05T06:20:37.228Z,56.59
2023-05-05T06:25:39.350Z,55.43
2023-05-05T06:30:41.429Z,56.07
2023-05-05T06:35:44.878Z,56.64
2023-05-05T06:40:48.118Z,52.22
2023-05-05T06:45:50.635Z,52.85
2023-05-05T06:50:54.105Z,54.59
2023-05-05T06:55:55.810Z,52.58
2023-05-05T07:00:58.025Z,53.10
2023-05-05T07:06:01.136Z,51.51
2023-05-05T07:11:03.317Z,51.39
2023-05-05T07:16:06.487Z,52.56
2023-05-05T07:21:10.422Z,51.09
2023-05-05T07:26:12.903Z,51.78
2023-05-05T07:31:15.348Z,51.99
2023-05-05T07:36:19.070Z,51.14
2023-05-05T07:41:21.167Z,51.65
2023-05-05T07:46:23.380Z,50.88
2023-05-05T07:51:26.662Z,50.92
2023-05-05T07:56:28.996Z,49.96
2023-05-05T08:01:31.274Z,50.26
2023-05-05T08:06:34.924Z,49.38
2023-05-05T08:11:37.072Z,49.00
2023-05-05T08:16:39.338Z,48.81
2023-05-05T08:21:43.334Z,48.05
2023-05-05T08:26:45.707Z,48.70
2023-05-05T08:31:47.891Z,47.47
2023-05-05T08:36:51.839Z,46.37
2023-05-05T08:41:53.954Z,45.45
2023-05-05T08:46:56.970Z,44.82
2023-05-05T08:52:02.914Z,41.11
2023-05-05T08:57:09.304Z,39.82
2023-05-05T09:02:13.194Z,40.85
2023-05-05T09:07:17.312Z,37.31
2023-05-05T09:12:20.286Z,38.08
2023-05-05T09:17:23.479Z,38.19
2023-05-05T09:22:35.578Z,36.38
2023-05-05T09:27:38.371Z,34.32
2023-05-05T09:32:44.631Z,33.57
2023-05-05T09:37:48.195Z,35.60
2023-05-05T09:43:01.423Z,36.44
2023-05-05T09:48:05.637Z,35.15
2023-05-05T09:53:10.630Z,33.63
2023-05-05T09:58:19.261Z,34.58
2023-05-05T10:03:21.474Z,33.32
2023-05-05T10:08:26.460Z,33.46
2023-05-05T10:13:28.895Z,34.97
2023-05-05T10:18:32.526Z,32.13
2023-05-05T10:23:39.211Z,31.50
2023-05-05T10:28:44.469Z,29.17
2023-05-05T10:33:52.754Z,30.43
2023-05-05T10:38:56.912Z,32.56
2023-05-05T10:44:00.922Z,36.01
2023-05-05T10:49:13.550Z,34.12
2023-05-05T10:54:30.490Z,33.97
2023-05-05T10:59:42.856Z,34.79
2023-05-05T11:05:02.857Z,35.68
2023-05-05T11:10:07.874Z,38.06
2023-05-05T11:15:34.895Z,38.16
2023-05-05T11:21:02.970Z,38.49
2023-05-05T11:26:06.671Z,36.10
2023-05-05T11:31:19.978Z,33.92
2023-05-05T11:36:39.940Z,34.69
2023-05-05T11:42:16.375Z,35.33
2023-05-05T11:47:31.958Z,36.99
2023-05-05T11:52:34.454Z,33.53
2023-05-05T11:57:38.436Z,33.01
2023-05-05T12:02:40.696Z,34.00
2023-05-05T12:07:43.092Z,31.48
2023-05-05T12:12:47.038Z,32.49
2023-05-05T12:17:49.635Z,33.09
2023-05-05T12:22:51.911Z,31.43
2023-05-05T12:27:55.723Z,33.32
2023-05-05T12:33:02.578Z,33.44
2023-05-05T12:38:04.821Z,32.28
2023-05-05T12:43:07.946Z,31.83
2023-05-05T12:48:22.120Z,31.26
2023-05-05T12:53:25.461Z,31.64
2023-05-05T12:58:29.157Z,30.30
2023-05-05T13:03:31.401Z,30.84
2023-05-05T13:08:42.915Z,29.73
2023-05-05T13:13:46.289Z,31.02
2023-05-05T13:18:49.528Z,31.83
2023-05-05T13:23:51.875Z,31.26
2023-05-05T13:28:55.229Z,30.44
2023-05-05T13:33:57.191Z,30.89
2023-05-05T13:38:59.326Z,30.46
2023-05-05T13:44:03.110Z,30.62
2023-05-05T13:49:05.222Z,29.52
2023-05-05T13:54:07.988Z,28.97
2023-05-05T13:59:11.623Z,29.74
2023-05-05T14:04:13.739Z,30.98
2023-05-05T14:09:15.917Z,30.50
2023-05-05T14:14:19.369Z,30.94
2023-05-05T14:19:21.456Z,32.33
2023-05-05T14:24:23.212Z,29.46
2023-05-05T14:29:26.422Z,30.28
2023-05-05T14:34:28.334Z,31.81
2023-05-05T14:39:30.128Z,33.17
2023-05-05T14:44:33.268Z,33.35
2023-05-05T14:49:35.176Z,33.75
2023-05-05T14:54:37.088Z,33.33
2023-05-05T14:59:40.670Z,33.81
2023-05-05T15:04:42.925Z,34.31
2023-05-05T15:09:45.084Z,35.67
2023-05-05T15:14:48.462Z,35.27
2023-05-05T15:19:51.266Z,36.58
2023-05-05T15:24:53.663Z,35.93
2023-05-05T15:29:57.655Z,36.02
2023-05-05T15:35:01.040Z,36.36
2023-05-05T15:40:03.772Z,36.61
2023-05-05T15:45:08.425Z,36.87
2023-05-05T15:50:10.720Z,38.21
2023-05-05T15:55:12.689Z,38.22
2023-05-05T16:00:16.747Z,38.30
2023-05-05T16:05:21.358Z,38.04
2023-05-05T16:10:25.006Z,39.20
2023-05-05T16:15:28.085Z,40.05
2023-05-05T16:20:29.887Z,39.95
2023-05-05T16:25:31.592Z,40.63
2023-05-05T16:30:34.632Z,40.06
2023-05-05T16:35:36.376Z,41.17
2023-05-05T16:40:38.543Z,41.46
2023-05-05T16:45:42.139Z,41.83
2023-05-05T16:50:43.897Z,42.50
2023-05-05T16:55:50.130Z,41.60
2023-05-05T17:00:53.733Z,42.18
2023-05-05T17:05:55.836Z,41.80
2023-05-05T17:10:57.880Z,42.62
2023-05-05T17:16:01.001Z,42.54
2023-05-05T17:21:02.932Z,42.67
2023-05-05T17:26:04.885Z,43.05
2023-05-05T17:31:08.019Z,43.39
2023-05-05T17:36:10.383Z,43.60
2023-05-05T17:41:12.133Z,44.13
2023-05-05T17:46:15.231Z,44.59
2023-05-05T17:51:17.224Z,44.48
2023-05-05T17:56:19.127Z,44.76
2023-05-05T18:01:22.690Z,45.03
2023-05-05T18:06:25.093Z,45.52
2023-05-05T18:11:26.862Z,45.33
2023-05-05T18:16:30.112Z,46.14
2023-05-05T18:21:31.950Z,49.34
2023-05-05T18:26:33.721Z,50.82
2023-05-05T18:31:36.893Z,50.10
2023-05-05T18:36:38.813Z,49.84
2023-05-05T18:41:41.149Z,50.97
2023-05-05T18:46:44.536Z,53.04
2023-05-05T18:51:46.548Z,55.33
2023-05-05T18:56:48.483Z,55.01
2023-05-05T19:01:52.057Z,55.09
2023-05-05T19:06:54.326Z,55.06
2023-05-05T19:11:56.662Z,55.03
2023-05-05T19:17:00.066Z,55.52
2023-05-05T19:22:03.626Z,54.98
2023-05-05T19:27:05.628Z,55.38
2023-05-05T19:32:09.973Z,55.59
2023-05-05T19:37:12.209Z,55.84
2023-05-05T19:42:14.221Z,55.75
2023-05-05T19:47:17.318Z,56.52
2023-05-05T19:52:19.091Z,56.30
2023-05-05T19:57:21.020Z,56.79
2023-05-05T20:02:24.444Z,56.89
2023-05-05T20:07:26.310Z,56.95
2023-05-05T20:12:28.359Z,57.03
2023-05-05T20:17:32.047Z,57.79
2023-05-05T20:22:34.552Z,57.92
2023-05-05T20:27:39.366Z,57.99
2023-05-05T20:32:43.164Z,58.19
2023-05-05T20:37:44.811Z,59.14
2023-05-05T20:42:46.998Z,59.98
2023-05-05T20:47:50.248Z,61.57
2023-05-05T20:52:52.704Z,62.95
2023-05-05T20:57:55.056Z,62.77
2023-05-05T21:02:58.644Z,64.63
2023-05-05T21:08:01.261Z,67.68
2023-05-05T21:13:03.911Z,67.07
2023-05-05T21:18:07.405Z,69.92
2023-05-05T21:23:09.257Z,70.01
2023-05-05T21:28:11.419Z,71.89
2023-05-05T21:33:15.129Z,72.44
2023-05-05T21:38:16.899Z,74.89
2023-05-05T21:43:18.996Z,76.33
2023-05-05T21:48:22.547Z,77.26
2023-05-05T21:53:24.500Z,78.77
2023-05-05T21:58:26.931Z,81.08
2023-05-05T22:03:30.587Z,81.26
2023-05-05T22:08:32.797Z,83.79
2023-05-05T22:13:34.910Z,85.71
2023-05-05T22:18:38.488Z,87.43
2023-05-05T22:23:40.579Z,89.01
2023-05-05T22:28:42.727Z,90.07
2023-05-05T22:33:46.233Z,89.77
2023-05-05T22:38:48.278Z,90.81
2023-05-05T22:43:50.390Z,91.71
2023-05-05T22:48:53.810Z,94.61
2023-05-05T22:53:56.064Z,95.73
2023-05-05T22:58:58.514Z,95.64
2023-05-05T23:04:02.175Z,96.99
2023-05-05T23:09:04.356Z,96.70
2023-05-05T23:14:06.476Z,98.49
2023-05-05T23:19:09.876Z,100.00
2023-05-05T23:24:11.945Z,100.00
2023-05-05T23:29:13.696Z,100.00
2023-05-05T23:34:17.268Z,100.00
2023-05-05T23:39:19.324Z,100.00
2023-05-05T23:44:21.461Z,100.00
2023-05-05T23:49:24.985Z,100.00
2023-05-05T23:54:27.009Z,100.00
2023-05-05T23:59:29.303Z,100.00
